Mitiwanga, Ohio
Current Conditions -  °F | °C
As of 11:53 PM on Saturday 25 Oct 2014 (Local Time) from KPCW Reporting Station
Clear Clear  
Wind Chill: 57°   Ceiling: Unl
Heat Index: 57°   Visibility: 10mi
Dew Point: 39°   Wind: 12mph
Humidity: 51%   Direction: 280°W
Pressure: 29.83"   Gusts: NA
Location:  41.3748°N, 82.5554°W
Report Text: KPCW 260353Z AUTO 28010KT 10SM CLR 14/04 A2983 RMK AO2 T01380038 $
Loading
Personal Weather Stations






























Interactive Weather Map
Tropical Storm Tracking
New forecast layout! Learn more

10-Day Weather Forecast

Advertisements
Track Severe Weather on mobile